Observation data for Memphis on 06/25/2019      Previous  Date       Current Mesonet Observations  Soil Data  Daily Summary Page  Observations in Plain Language
KMES 250500Z 11005KT 24/16 A2993 RMK A01 T02370161  RH  065%=      5-min Rain = 0
KMES 250505Z 12006KT 24/16 A2993 RMK A01 T02360162  RH  066%=      5-min Rain = 0
KMES 250510Z 12007KT 24/16 A2993 RMK A01 T02370163  RH  066%=      5-min Rain = 0
KMES 250515Z 11006KT 24/16 A2993 RMK A01 T02380164  RH  066%=      5-min Rain = 0
KMES 250520Z 11005KT 24/16 A2993 RMK A01 T02370164  RH  067%=      5-min Rain = 0
KMES 250525Z 12005KT 24/17 A2993 RMK A01 T02360165  RH  068%=      5-min Rain = 0
KMES 250530Z 12005KT 24/17 A2993 RMK A01 T02360166  RH  068%=      5-min Rain = 0
KMES 250535Z 12006KT 24/17 A2993 RMK A01 T02360167  RH  069%=      5-min Rain = 0
KMES 250540Z 12006KT 24/17 A2993 RMK A01 T02360169  RH  069%=      5-min Rain = 0
KMES 250545Z 11006KT 24/17 A2993 RMK A01 T02360170  RH  070%=      5-min Rain = 0
KMES 250550Z 11006KT 24/17 A2993 RMK A01 T02350172  RH  071%=      5-min Rain = 0
KMES 250555Z 11005KT 24/17 A2993 RMK A01 T02350173  RH  072%=      5-min Rain = 0
KMES 250600Z 12005KT 23/17 A2993 RMK A01 T02330173  RH  073%=      5-min Rain = 0
KMES 250605Z 11004KT 23/17 A2993 RMK A01 T02320174  RH  073%=      5-min Rain = 0
KMES 250610Z 12005KT 23/18 A2993 RMK A01 T02320175  RH  074%=      5-min Rain = 0
KMES 250615Z 12005KT 23/18 A2993 RMK A01 T02330177  RH  074%=      5-min Rain = 0
KMES 250620Z 13005KT 24/18 A2993 RMK A01 T02350178  RH  074%=      5-min Rain = 0
KMES 250625Z 13005KT 24/18 A2993 RMK A01 T02370179  RH  073%=      5-min Rain = 0
KMES 250630Z 13005KT 24/18 A2993 RMK A01 T02380180  RH  073%=      5-min Rain = 0
KMES 250635Z 13005KT 24/18 A2993 RMK A01 T02380181  RH  074%=      5-min Rain = 0
KMES 250640Z 12005KT 24/18 A2993 RMK A01 T02380181  RH  074%=      5-min Rain = 0
KMES 250645Z 12005KT 24/18 A2993 RMK A01 T02380182  RH  075%=      5-min Rain = 0
KMES 250650Z 12005KT 24/18 A2993 RMK A01 T02370183  RH  076%=      5-min Rain = 0
KMES 250655Z 12004KT 24/18 A2993 RMK A01 T02360184  RH  077%=      5-min Rain = 0
KMES 250700Z 12005KT 24/19 A2993 RMK A01 T02350185  RH  078%=      5-min Rain = 0
KMES 250705Z 12005KT 24/19 A2993 RMK A01 T02360186  RH  078%=      5-min Rain = 0
KMES 250710Z 12004KT 24/19 A2993 RMK A01 T02360187  RH  079%=      5-min Rain = 0
KMES 250715Z 12005KT 24/19 A2993 RMK A01 T02350188  RH  079%=      5-min Rain = 0
KMES 250720Z 11004KT 23/19 A2993 RMK A01 T02340187  RH  079%=      5-min Rain = 0
KMES 250725Z 11003KT 23/19 A2993 RMK A01 T02330187  RH  080%=      5-min Rain = 0
KMES 250730Z 10003KT 23/19 A2993 RMK A01 T02310187  RH  080%=      5-min Rain = 0
KMES 250735Z 10002KT 23/19 A2993 RMK A01 T02300187  RH  081%=      5-min Rain = 0
KMES 250740Z 08002KT 23/19 A2993 RMK A01 T02280186  RH  082%=      5-min Rain = 0
KMES 250745Z 09002KT 23/19 A2993 RMK A01 T02270186  RH  082%=      5-min Rain = 0
KMES 250750Z 10002KT 23/19 A2993 RMK A01 T02260186  RH  083%=      5-min Rain = 0
KMES 250755Z 11002KT 23/19 A2993 RMK A01 T02250186  RH  083%=      5-min Rain = 0
KMES 250800Z 11002KT 22/19 A2993 RMK A01 T02240186  RH  083%=      5-min Rain = 0
KMES 250805Z 11001KT 22/19 A2993 RMK A01 T02230186  RH  084%=      5-min Rain = 0
KMES 250810Z 12002KT 22/19 A2993 RMK A01 T02220186  RH  084%=      5-min Rain = 0
KMES 250815Z 12001KT 22/19 A2993 RMK A01 T02220186  RH  085%=      5-min Rain = 0
KMES 250820Z 11002KT 22/19 A2993 RMK A01 T02220187  RH  085%=      5-min Rain = 0
KMES 250825Z 11001KT 22/19 A2993 RMK A01 T02200187  RH  086%=      5-min Rain = 0
KMES 250830Z 08001KT 22/19 A2993 RMK A01 T02190186  RH  086%=      5-min Rain = 0
KMES 250835Z 08002KT 22/19 A2993 RMK A01 T02180186  RH  087%=      5-min Rain = 0
KMES 250840Z 09002KT 22/19 A2993 RMK A01 T02180187  RH  087%=      5-min Rain = 0
KMES 250845Z 09002KT 22/19 A2993 RMK A01 T02170187  RH  088%=      5-min Rain = 0
KMES 250850Z 09001KT 22/19 A2993 RMK A01 T02160187  RH  088%=      5-min Rain = 0
KMES 250855Z 08002KT 22/19 A2993 RMK A01 T02150187  RH  089%=      5-min Rain = 0
KMES 250900Z 08001KT 21/19 A2993 RMK A01 T02140187  RH  089%=      5-min Rain = 0
KMES 250905Z 00000KT 21/19 A2993 RMK A01 T02130186  RH  089%=      5-min Rain = 0
KMES 250910Z 00000KT 21/19 A2993 RMK A01 T02130186  RH  090%=      5-min Rain = 0
KMES 250915Z 00000KT 21/19 A2993 RMK A01 T02130187  RH  090%=      5-min Rain = 0
KMES 250920Z 00000KT 21/19 A2993 RMK A01 T02130188  RH  090%=      5-min Rain = 0
KMES 250925Z 00000KT 21/19 A2993 RMK A01 T02140189  RH  091%=      5-min Rain = 0
KMES 250930Z 00000KT 22/19 A2993 RMK A01 T02150190  RH  090%=      5-min Rain = 0
KMES 250935Z 00000KT 22/19 A2993 RMK A01 T02160191  RH  090%=      5-min Rain = 0
KMES 250940Z 00000KT 22/19 A2994 RMK A01 T02170192  RH  090%=      5-min Rain = 0
KMES 250945Z 00000KT 22/19 A2994 RMK A01 T02180192  RH  090%=      5-min Rain = 0
KMES 250950Z 00000KT 22/19 A2994 RMK A01 T02180192  RH  090%=      5-min Rain = 0
KMES 250955Z 00000KT 22/19 A2994 RMK A01 T02180192  RH  090%=      5-min Rain = 0
KMES 251000Z 00000KT 22/19 A2994 RMK A01 T02190193  RH  090%=      5-min Rain = 0
KMES 251005Z 09001KT 22/19 A2995 RMK A01 T02200194  RH  090%=      5-min Rain = 0
KMES 251010Z 09002KT 22/19 A2995 RMK A01 T02200194  RH  090%=      5-min Rain = 0
KMES 251015Z 11001KT 22/20 A2995 RMK A01 T02210195  RH  090%=      5-min Rain = 0
KMES 251020Z 10000KT 22/20 A2995 RMK A01 T02210195  RH  090%=      5-min Rain = 0
KMES 251025Z 12003KT 22/20 A2995 RMK A01 T02210196  RH  091%=      5-min Rain = 0
KMES 251030Z 11003KT 22/20 A2995 RMK A01 T02210196  RH  091%=      5-min Rain = 0
KMES 251035Z 11003KT 22/20 A2995 RMK A01 T02200196  RH  091%=      5-min Rain = 0
KMES 251040Z 10003KT 22/20 A2995 RMK A01 T02200197  RH  092%=      5-min Rain = 0
KMES 251045Z 12004KT 22/20 A2995 RMK A01 T02200197  RH  092%=      5-min Rain = 0
KMES 251050Z 12004KT 22/20 A2995 RMK A01 T02210198  RH  092%=      5-min Rain = 0
KMES 251055Z 12005KT 22/20 A2995 RMK A01 T02210199  RH  092%=      5-min Rain = 0
KMES 251100Z 11004KT 22/20 A2995 RMK A01 T02210199  RH  092%=      5-min Rain = 0
KMES 251105Z 11003KT 22/20 A2995 RMK A01 T02200198  RH  092%=      5-min Rain = 0
KMES 251110Z 11004KT 22/20 A2995 RMK A01 T02200198  RH  093%=      5-min Rain = 0
KMES 251115Z 11003KT 22/20 A2995 RMK A01 T02190198  RH  093%=      5-min Rain = 0
KMES 251120Z 11003KT 22/20 A2995 RMK A01 T02180198  RH  093%=      5-min Rain = 0
KMES 251125Z 12003KT 22/20 A2996 RMK A01 T02170197  RH  093%=      5-min Rain = 0
KMES 251130Z 11004KT 22/20 A2996 RMK A01 T02170197  RH  094%=      5-min Rain = 0
KMES 251135Z 11004KT 22/20 A2996 RMK A01 T02160197  RH  094%=      5-min Rain = 0
KMES 251140Z 11004KT 22/20 A2996 RMK A01 T02160197  RH  094%=      5-min Rain = 0
KMES 251145Z 12005KT 22/20 A2996 RMK A01 T02160198  RH  095%=      5-min Rain = 0
KMES 251150Z 12006KT 22/20 A2996 RMK A01 T02170200  RH  095%=      5-min Rain = 0
KMES 251155Z 13007KT 22/20 A2997 RMK A01 T02180201  RH  095%=      5-min Rain = 0
KMES 251200Z 13005KT 22/20 A2997 RMK A01 T02190201  RH  095%=      5-min Rain = 0
KMES 251205Z 14005KT 22/20 A2997 RMK A01 T02190202  RH  095%=      5-min Rain = 0
KMES 251210Z 15004KT 22/20 A2997 RMK A01 T02200202  RH  095%=      5-min Rain = 0
KMES 251215Z 16004KT 22/20 A2997 RMK A01 T02190201  RH  095%=      5-min Rain = 0
KMES 251220Z 17005KT 22/20 A2997 RMK A01 T02190201  RH  095%=      5-min Rain = 0
KMES 251225Z 19007KT 22/20 A2998 RMK A01 T02180199  RH  094%=      5-min Rain = 0
KMES 251230Z 18006KT 22/20 A2998 RMK A01 T02180199  RH  094%=      5-min Rain = 0
KMES 251235Z 18005KT 22/20 A2998 RMK A01 T02170199  RH  094%=      5-min Rain = 0
KMES 251240Z 16003KT 22/20 A2998 RMK A01 T02170199  RH  094%=      5-min Rain = 0
KMES 251245Z 16003KT 22/20 A2998 RMK A01 T02180199  RH  094%=      5-min Rain = 0
KMES 251250Z 15002KT 22/20 A2998 RMK A01 T02190200  RH  094%=      5-min Rain = 0
KMES 251255Z 19001KT 22/20 A2998 RMK A01 T02200201  RH  094%=      5-min Rain = 0
KMES 251300Z 17002KT 22/20 A2998 RMK A01 T02200201  RH  094%=      5-min Rain = 0
KMES 251305Z 19002KT 22/20 A2998 RMK A01 T02220202  RH  094%=      5-min Rain = 0
KMES 251310Z 24002KT 22/20 A2998 RMK A01 T02240204  RH  094%=      5-min Rain = 0
KMES 251315Z 22003KT 22/20 A2998 RMK A01 T02240201  RH  092%=      5-min Rain = 0
KMES 251320Z 23001KT 22/20 A2998 RMK A01 T02230199  RH  091%=      5-min Rain = 0
KMES 251325Z 23000KT 22/20 A2998 RMK A01 T02240200  RH  091%=      5-min Rain = 0
KMES 251330Z 20000KT 23/20 A2998 RMK A01 T02290204  RH  091%=      5-min Rain = 0
KMES 251335Z 18001KT 23/20 A2998 RMK A01 T02320204  RH  089%=      5-min Rain = 0
KMES 251340Z 18001KT 24/20 A2998 RMK A01 T02350203  RH  087%=      5-min Rain = 0
KMES 251345Z 20001KT 24/20 A2998 RMK A01 T02370200  RH  085%=      5-min Rain = 0
KMES 251350Z 17003KT 24/20 A2998 RMK A01 T02400199  RH  082%=      5-min Rain = 0
KMES 251355Z 13003KT 24/20 A2999 RMK A01 T02420197  RH  080%=      5-min Rain = 0
KMES 251400Z 14003KT 25/20 A2999 RMK A01 T02450198  RH  079%=      5-min Rain = 0
KMES 251405Z 14004KT 25/20 A2999 RMK A01 T02470198  RH  078%=      5-min Rain = 0
KMES 251410Z 14004KT 25/20 A2999 RMK A01 T02480195  RH  077%=      5-min Rain = 0
KMES 251415Z 19004KT 25/19 A2999 RMK A01 T02500192  RH  074%=      5-min Rain = 0
KMES 251420Z 15005KT 25/19 A2999 RMK A01 T02520192  RH  073%=      5-min Rain = 0
KMES 251425Z 16006KT 25/19 A30 RMK A01 T02520191  RH  073%=      5-min Rain = 0
KMES 251430Z 16006KT 25/19 A30 RMK A01 T02540193  RH  073%=      5-min Rain = 0
KMES 251435Z 16006KT 25/19 A2999 RMK A01 T02530189  RH  072%=      5-min Rain = 0
KMES 251440Z 16004KT 26/19 A2999 RMK A01 T02560191  RH  071%=      5-min Rain = 0
KMES 251445Z 17004KT 26/19 A2999 RMK A01 T02590190  RH  069%=      5-min Rain = 0
KMES 251450Z 16004KT 26/19 A2999 RMK A01 T02630188  RH  067%=      5-min Rain = 0
KMES 251455Z 16004KT 26/19 A2999 RMK A01 T02620189  RH  068%=      5-min Rain = 0
KMES 251500Z 15003KT 26/19 A2999 RMK A01 T02620192  RH  069%=      5-min Rain = 0
KMES 251505Z 17004KT 26/19 A2999 RMK A01 T02640188  RH  066%=      5-min Rain = 0
KMES 251510Z 16001KT 27/19 A2999 RMK A01 T02650188  RH  066%=      5-min Rain = 0
KMES 251515Z 26001KT 27/19 A2999 RMK A01 T02670188  RH  065%=      5-min Rain = 0
KMES 251520Z 17004KT 27/19 A2999 RMK A01 T02700185  RH  063%=      5-min Rain = 0
KMES 251525Z 19004KT 27/18 A2999 RMK A01 T02730178  RH  059%=      5-min Rain = 0
KMES 251530Z 21005G10KT 28/17 A2999 RMK A01 T02760169  RH  055%=      5-min Rain = 0
KMES 251535Z 22004KT 28/17 A2999 RMK A01 T02760167  RH  054%=      5-min Rain = 0
KMES 251540Z 22005G11KT 28/17 A2999 RMK A01 T02750166  RH  054%=      5-min Rain = 0
KMES 251545Z 22007G12KT 28/16 A2999 RMK A01 T02780164  RH  052%=      5-min Rain = 0
KMES 251550Z 21006KT 28/16 A2999 RMK A01 T02760162  RH  052%=      5-min Rain = 0
KMES 251555Z 21006KT 28/16 A2999 RMK A01 T02790162  RH  052%=      5-min Rain = 0
KMES 251600Z 26005KT 28/16 A2999 RMK A01 T02790162  RH  052%=      5-min Rain = 0.01
KMES 251605Z 26004KT 28/16 A2999 RMK A01 T02790161  RH  051%=      5-min Rain = 0
KMES 251610Z 21006KT 28/16 A2999 RMK A01 T02810163  RH  051%=      5-min Rain = 0
KMES 251615Z 26004KT 28/16 A2999 RMK A01 T02840162  RH  050%=      5-min Rain = 0
KMES 251620Z 28004KT 28/16 A2999 RMK A01 T02830161  RH  050%=      5-min Rain = 0
KMES 251625Z 22004KT 29/16 A2999 RMK A01 T02850161  RH  049%=      5-min Rain = 0
KMES 251630Z 21006KT 29/16 A2999 RMK A01 T02860160  RH  049%=      5-min Rain = 0
KMES 251635Z 21004KT 29/16 A2999 RMK A01 T02870162  RH  049%=      5-min Rain = 0
KMES 251640Z 19002KT 29/16 A2999 RMK A01 T02880159  RH  048%=      5-min Rain = 0
KMES 251645Z 21006KT 29/16 A2999 RMK A01 T02900157  RH  047%=      5-min Rain = 0
KMES 251650Z 24003KT 29/16 A2999 RMK A01 T02910157  RH  046%=      5-min Rain = 0
KMES 251655Z 27003KT 29/16 A2999 RMK A01 T02910156  RH  046%=      5-min Rain = 0
KMES 251700Z 25002KT 29/16 A2999 RMK A01 T02920161  RH  047%=      5-min Rain = 0
KMES 251705Z 20003KT 30/16 A2999 RMK A01 T02970157  RH  045%=      5-min Rain = 0
KMES 251710Z 22003KT 30/15 A2999 RMK A01 T02970153  RH  044%=      5-min Rain = 0
KMES 251715Z 08000KT 30/15 A2999 RMK A01 T02970154  RH  044%=      5-min Rain = 0
KMES 251720Z 07003KT 30/15 A2999 RMK A01 T03020153  RH  042%=      5-min Rain = 0
KMES 251725Z 09002G7KT 30/16 A2998 RMK A01 T03020155  RH  043%=      5-min Rain = 0
KMES 251730Z 21004KT 31/16 A2998 RMK A01 T03050160  RH  044%=      5-min Rain = 0
KMES 251735Z 19003KT 31/16 A2998 RMK A01 T03050159  RH  043%=      5-min Rain = 0
KMES 251740Z 14003KT 31/16 A2998 RMK A01 T03080156  RH  042%=      5-min Rain = 0
KMES 251745Z 20002KT 31/16 A2998 RMK A01 T03100155  RH  041%=      5-min Rain = 0
KMES 251750Z 15003KT 31/16 A2998 RMK A01 T03120157  RH  041%=      5-min Rain = 0
KMES 251755Z 07002KT 31/15 A2998 RMK A01 T03120152  RH  040%=      5-min Rain = 0
KMES 251800Z 08002KT 31/15 A2998 RMK A01 T03130154  RH  040%=      5-min Rain = 0
KMES 251805Z 16005KT 32/16 A2998 RMK A01 T03160159  RH  041%=      5-min Rain = 0
KMES 251810Z 16005KT 32/16 A2998 RMK A01 T03180158  RH  040%=      5-min Rain = 0
KMES 251815Z 19002KT 32/15 A2998 RMK A01 T03190153  RH  039%=      5-min Rain = 0
KMES 251820Z 25005KT 31/15 A2997 RMK A01 T03140149  RH  038%=      5-min Rain = 0
KMES 251825Z 26002G7KT 31/15 A2997 RMK A01 T03110150  RH  039%=      5-min Rain = 0
KMES 251830Z 15006KT 32/15 A2997 RMK A01 T03150149  RH  038%=      5-min Rain = 0
KMES 251835Z 11005KT 32/15 A2997 RMK A01 T03190145  RH  036%=      5-min Rain = 0
KMES 251840Z 14004KT 32/14 A2997 RMK A01 T03200144  RH  036%=      5-min Rain = 0
KMES 251845Z 11001KT 32/14 A2997 RMK A01 T03210141  RH  035%=      5-min Rain = 0
KMES 251850Z 18005G10KT 32/15 A2996 RMK A01 T03240146  RH  036%=      5-min Rain = 0
KMES 251855Z 13003KT 33/14 A2996 RMK A01 T03260143  RH  035%=      5-min Rain = 0
KMES 251900Z 14004KT 33/15 A2996 RMK A01 T03300149  RH  035%=      5-min Rain = 0
KMES 251905Z 16006G12KT 33/15 A2996 RMK A01 T03340146  RH  034%=      5-min Rain = 0
KMES 251910Z 15005KT 33/14 A2996 RMK A01 T03310139  RH  033%=      5-min Rain = 0
KMES 251915Z 14004KT 33/14 A2996 RMK A01 T03330139  RH  032%=      5-min Rain = 0
KMES 251920Z 13007G13KT 34/15 A2996 RMK A01 T03380147  RH  033%=      5-min Rain = 0
KMES 251925Z 10006G11KT 34/14 A2996 RMK A01 T03370142  RH  032%=      5-min Rain = 0
KMES 251930Z 15004KT 33/14 A2995 RMK A01 T03340144  RH  033%=      5-min Rain = 0
KMES 251935Z 16005G10KT 34/15 A2995 RMK A01 T03390148  RH  033%=      5-min Rain = 0
KMES 251940Z 16007G12KT 34/14 A2995 RMK A01 T03440144  RH  031%=      5-min Rain = 0
KMES 251945Z 18004KT 35/14 A2995 RMK A01 T03480143  RH  031%=      5-min Rain = 0
KMES 251950Z 15009KT 35/14 A2995 RMK A01 T03480141  RH  030%=      5-min Rain = 0
KMES 251955Z 16006KT 35/14 A2994 RMK A01 T03460142  RH  031%=      5-min Rain = 0
KMES 252000Z 11009G14KT 35/15 A2994 RMK A01 T03470145  RH  031%=      5-min Rain = 0
KMES 252005Z 10010G16KT 35/14 A2994 RMK A01 T03450142  RH  031%=      5-min Rain = 0
KMES 252010Z 12011G16KT 35/15 A2994 RMK A01 T03470147  RH  032%=      5-min Rain = 0
KMES 252015Z 12010KT 35/15 A2993 RMK A01 T03500146  RH  031%=      5-min Rain = 0
KMES 252020Z 13009KT 35/15 A2993 RMK A01 T03480145  RH  031%=      5-min Rain = 0
KMES 252025Z 11007KT 35/15 A2993 RMK A01 T03490148  RH  031%=      5-min Rain = 0
KMES 252030Z 12011G17KT 35/14 A2993 RMK A01 T03490144  RH  031%=      5-min Rain = 0
KMES 252035Z 17010KT 35/14 A2993 RMK A01 T03450144  RH  031%=      5-min Rain = 0
KMES 252040Z 12012G22KT 34/14 A2993 RMK A01 T03440144  RH  031%=      5-min Rain = 0
KMES 252045Z 14012G18KT 35/14 A2992 RMK A01 T03470144  RH  031%=      5-min Rain = 0
KMES 252050Z 15010G15KT 35/14 A2992 RMK A01 T03480144  RH  031%=      5-min Rain = 0
KMES 252055Z 14008G14KT 35/14 A2992 RMK A01 T03450140  RH  030%=      5-min Rain = 0
KMES 252100Z 13011G16KT 35/15 A2992 RMK A01 T03450145  RH  031%=      5-min Rain = 0
KMES 252105Z 15010G16KT 35/15 A2991 RMK A01 T03480147  RH  031%=      5-min Rain = 0
KMES 252110Z 15007KT 35/15 A2991 RMK A01 T03480148  RH  032%=      5-min Rain = 0
KMES 252115Z 13012G24KT 35/15 A2991 RMK A01 T03500149  RH  032%=      5-min Rain = 0
KMES 252120Z 13014G20KT 35/15 A2991 RMK A01 T03530150  RH  031%=      5-min Rain = 0
KMES 252125Z 13013G18KT 35/15 A2991 RMK A01 T03460148  RH  032%=      5-min Rain = 0
KMES 252130Z 13012G20KT 34/15 A2991 RMK A01 T03430150  RH  033%=      5-min Rain = 0
KMES 252135Z 14013G20KT 35/15 A2991 RMK A01 T03470151  RH  032%=      5-min Rain = 0
KMES 252140Z 12013KT 35/15 A299 RMK A01 T03500148  RH  031%=      5-min Rain = 0
KMES 252145Z 14012KT 35/15 A299 RMK A01 T03510150  RH  032%=      5-min Rain = 0
KMES 252150Z 14013G18KT 35/15 A299 RMK A01 T03500151  RH  032%=      5-min Rain = 0
KMES 252155Z 13012G19KT 35/16 A299 RMK A01 T03460155  RH  034%=      5-min Rain = 0
KMES 252200Z 12014G19KT 34/16 A299 RMK A01 T03440163  RH  036%=      5-min Rain = 0
KMES 252205Z 13014KT 34/16 A299 RMK A01 T03390156  RH  035%=      5-min Rain = 0
KMES 252210Z 13016G22KT 34/16 A299 RMK A01 T03370155  RH  035%=      5-min Rain = 0
KMES 252215Z 13014G21KT 33/16 A299 RMK A01 T03340155  RH  036%=      5-min Rain = 0
KMES 252220Z 15012KT 33/15 A299 RMK A01 T03340150  RH  035%=      5-min Rain = 0
KMES 252225Z 14010G15KT 33/15 A2991 RMK A01 T03340151  RH  035%=      5-min Rain = 0
KMES 252230Z 14010G15KT 33/15 A2991 RMK A01 T03320153  RH  036%=      5-min Rain = 0
KMES 252235Z 14012KT 33/15 A2991 RMK A01 T03330149  RH  034%=      5-min Rain = 0
KMES 252240Z 14014G19KT 33/15 A299 RMK A01 T03310145  RH  034%=      5-min Rain = 0
KMES 252245Z 13014G20KT 33/14 A299 RMK A01 T03300144  RH  034%=      5-min Rain = 0
KMES 252250Z 13013G19KT 33/15 A299 RMK A01 T03290145  RH  034%=      5-min Rain = 0
KMES 252255Z 13013G18KT 33/14 A299 RMK A01 T03280144  RH  034%=      5-min Rain = 0
KMES 252300Z 13012G17KT 33/15 A299 RMK A01 T03280146  RH  035%=      5-min Rain = 0
KMES 252305Z 14011KT 33/14 A2991 RMK A01 T03260142  RH  034%=      5-min Rain = 0
KMES 252310Z 15009KT 32/14 A2992 RMK A01 T03230141  RH  035%=      5-min Rain = 0
KMES 252315Z 15010G15KT 32/14 A2992 RMK A01 T03210143  RH  036%=      5-min Rain = 0
KMES 252320Z 14012G17KT 32/14 A2992 RMK A01 T03210140  RH  035%=      5-min Rain = 0
KMES 252325Z 15010KT 32/14 A2992 RMK A01 T03200142  RH  035%=      5-min Rain = 0
KMES 252330Z 14010KT 32/14 A2991 RMK A01 T03190142  RH  036%=      5-min Rain = 0
KMES 252335Z 13011KT 32/14 A2992 RMK A01 T03190139  RH  035%=      5-min Rain = 0
KMES 252340Z 14010KT 32/14 A2992 RMK A01 T03180141  RH  036%=      5-min Rain = 0
KMES 252345Z 13009KT 32/14 A2993 RMK A01 T03170144  RH  036%=      5-min Rain = 0
KMES 252350Z 13010KT 32/15 A2993 RMK A01 T03160148  RH  038%=      5-min Rain = 0
KMES 252355Z 13011KT 31/15 A2993 RMK A01 T03140150  RH  039%=      5-min Rain = 0
KMES 260000Z 13012KT 31/15 A2993 RMK A01 T03130151  RH  039%=      5-min Rain = 0
KMES 260005Z 13011KT 31/15 A2993 RMK A01 T03110152  RH  040%=      5-min Rain = 0
KMES 260010Z 12007KT 31/15 A2994 RMK A01 T03090154  RH  041%=      5-min Rain = 0
KMES 260015Z 09005KT 31/15 A2996 RMK A01 T03060154  RH  042%=      5-min Rain = 0
KMES 260020Z 07004KT 30/16 A2996 RMK A01 T03040156  RH  043%=      5-min Rain = 0
KMES 260025Z 08004KT 30/16 A2996 RMK A01 T03020157  RH  043%=      5-min Rain = 0
KMES 260030Z 07003KT 30/16 A2997 RMK A01 T03000158  RH  044%=      5-min Rain = 0
KMES 260035Z 24005G17KT 30/15 A2999 RMK A01 T02990150  RH  043%=      5-min Rain = 0
KMES 260040Z 29021G34KT 29/12 A30 RMK A01 T02870117  RH  036%=      5-min Rain = 0
KMES 260045Z 30022G31KT 27/11 A3002 RMK A01 T02680110  RH  039%=      5-min Rain = 0
KMES 260050Z 30018G26KT 26/11 A3002 RMK A01 T02630111  RH  040%=      5-min Rain = 0
KMES 260055Z 29022G35KT 25/13 A3004 RMK A01 T02500131  RH  049%=      5-min Rain = 0
KMES 260100Z 29014G23KT 23/15 A3005 RMK A01 T02310146  RH  061%=      5-min Rain = 0
KMES 260105Z 31015G23KT 22/16 A3005 RMK A01 T02160156  RH  072%=      5-min Rain = 0
KMES 260110Z 31018G27KT 21/15 A3006 RMK A01 T02130152  RH  071%=      5-min Rain = 0.01
KMES 260115Z 32017G23KT 21/15 A3005 RMK A01 T02100150  RH  071%=      5-min Rain = 0.01
KMES 260120Z 32020G28KT 22/15 A3005 RMK A01 T02150147  RH  068%=      5-min Rain = 0
KMES 260125Z 33018G26KT 22/14 A3005 RMK A01 T02230139  RH  062%=      5-min Rain = 0
KMES 260130Z 34015G20KT 23/15 A3005 RMK A01 T02250147  RH  064%=      5-min Rain = 0
KMES 260135Z 35015KT 22/15 A3006 RMK A01 T02220147  RH  065%=      5-min Rain = 0
KMES 260140Z 34015KT 23/15 A3007 RMK A01 T02260145  RH  063%=      5-min Rain = 0
KMES 260145Z 35020G25KT 23/14 A3007 RMK A01 T02300137  RH  058%=      5-min Rain = 0.01
KMES 260150Z 36021KT 23/14 A3008 RMK A01 T02310138  RH  058%=      5-min Rain = 0
KMES 260155Z 35021KT 23/14 A3008 RMK A01 T02320138  RH  058%=      5-min Rain = 0
KMES 260200Z 35024G32KT 23/14 A3009 RMK A01 T02320138  RH  058%=      5-min Rain = 0.01
KMES 260205Z 35016G25KT 23/12 A3011 RMK A01 T02340119  RH  051%=      5-min Rain = 0.02
KMES 260210Z 09007G13KT 25/12 A3011 RMK A01 T02500117  RH  045%=      5-min Rain = 0.01
KMES 260215Z 10012G19KT 24/12 A301 RMK A01 T02370117  RH  049%=      5-min Rain = 0.01
KMES 260220Z 09011G16KT 24/12 A301 RMK A01 T02430121  RH  048%=      5-min Rain = 0
KMES 260225Z 08010G16KT 24/13 A3009 RMK A01 T02360125  RH  052%=      5-min Rain = 0.02
KMES 260230Z 10008KT 23/14 A3009 RMK A01 T02250137  RH  060%=      5-min Rain = 0
KMES 260235Z 07007G12KT 22/14 A3009 RMK A01 T02160142  RH  065%=      5-min Rain = 0
KMES 260240Z 07010G17KT 22/14 A3009 RMK A01 T02150140  RH  065%=      5-min Rain = 0
KMES 260245Z 06013G18KT 22/14 A3009 RMK A01 T02160140  RH  065%=      5-min Rain = 0
KMES 260250Z 06012G17KT 22/14 A3009 RMK A01 T02160141  RH  065%=      5-min Rain = 0
KMES 260255Z 07011KT 22/14 A3009 RMK A01 T02150140  RH  065%=      5-min Rain = 0
KMES 260300Z 08010KT 21/14 A3008 RMK A01 T02120143  RH  068%=      5-min Rain = 0.01
KMES 260305Z 09011KT 21/14 A3008 RMK A01 T02100142  RH  068%=      5-min Rain = 0
KMES 260310Z 10010G17KT 21/14 A3007 RMK A01 T02090144  RH  069%=      5-min Rain = 0
KMES 260315Z 11012KT 21/15 A3006 RMK A01 T02090145  RH  070%=      5-min Rain = 0
KMES 260320Z 10011G16KT 21/15 A3006 RMK A01 T02090145  RH  069%=      5-min Rain = 0
KMES 260325Z 10011KT 21/14 A3005 RMK A01 T02090144  RH  069%=      5-min Rain = 0
KMES 260330Z 10011KT 21/14 A3004 RMK A01 T02090142  RH  068%=      5-min Rain = 0
KMES 260335Z 11011KT 21/15 A3004 RMK A01 T02080146  RH  071%=      5-min Rain = 0
KMES 260340Z 11011G16KT 21/15 A3003 RMK A01 T02070146  RH  071%=      5-min Rain = 0
KMES 260345Z 12008G13KT 21/15 A3002 RMK A01 T02080146  RH  071%=      5-min Rain = 0
KMES 260350Z 15006KT 21/15 A3002 RMK A01 T02070148  RH  072%=      5-min Rain = 0
KMES 260355Z 16006KT 21/15 A3003 RMK A01 T02100147  RH  070%=      5-min Rain = 0
KMES 260400Z 14004KT 21/15 A3002 RMK A01 T02100148  RH  071%=      5-min Rain = 0
KMES 260405Z 10003KT 21/15 A3002 RMK A01 T02090150  RH  072%=      5-min Rain = 0
KMES 260410Z 11001KT 21/15 A3001 RMK A01 T02070151  RH  073%=      5-min Rain = 0
KMES 260415Z 13002KT 21/15 A30 RMK A01 T02070152  RH  074%=      5-min Rain = 0
KMES 260420Z 17001KT 21/15 A2999 RMK A01 T02070154  RH  075%=      5-min Rain = 0
KMES 260425Z 24001KT 21/16 A2999 RMK A01 T02070157  RH  077%=      5-min Rain = 0
KMES 260430Z 28002KT 21/16 A2999 RMK A01 T02060158  RH  078%=      5-min Rain = 0
KMES 260435Z 29003KT 20/16 A2999 RMK A01 T02040157  RH  078%=      5-min Rain = 0
KMES 260440Z 30003KT 21/16 A30 RMK A01 T02050159  RH  078%=      5-min Rain = 0
KMES 260445Z 32009KT 21/16 A3001 RMK A01 T02070161  RH  079%=      5-min Rain = 0
KMES 260450Z 30005G11KT 21/15 A3001 RMK A01 T02090154  RH  074%=      5-min Rain = 0
KMES 260455Z 25002KT 21/15 A30 RMK A01 T02130154  RH  072%=      5-min Rain = 0

Page generated in 0.0095 seconds.